sensor_id;sensor_type;location;lat;lon;timestamp;pressure;altitude;pressure_sealevel;temperature;humidity
28606;BME280;46498;49.968;7.754;2022-09-13T00:04:14;96739.00;;;14.54;85.31
28606;BME280;46498;49.968;7.754;2022-09-13T00:09:15;96738.00;;;14.45;85.58
28606;BME280;46498;49.968;7.754;2022-09-13T00:14:16;96745.00;;;14.22;87.00
28606;BME280;46498;49.968;7.754;2022-09-13T00:19:16;96729.00;;;14.17;87.39
28606;BME280;46498;49.968;7.754;2022-09-13T00:24:17;96716.00;;;14.43;85.67
28606;BME280;46498;49.968;7.754;2022-09-13T00:29:18;96716.00;;;14.25;86.38
28606;BME280;46498;49.968;7.754;2022-09-13T00:34:20;96706.00;;;14.22;87.60
28606;BME280;46498;49.968;7.754;2022-09-13T00:39:21;96708.00;;;14.25;86.85
28606;BME280;46498;49.968;7.754;2022-09-13T00:44:58;96712.00;;;13.96;87.64
28606;BME280;46498;49.968;7.754;2022-09-13T00:50:15;96721.00;;;14.07;84.61
28606;BME280;46498;49.968;7.754;2022-09-13T00:55:31;96711.00;;;13.93;86.58
28606;BME280;46498;49.968;7.754;2022-09-13T01:00:35;96718.00;;;13.96;86.50
28606;BME280;46498;49.968;7.754;2022-09-13T01:05:44;96715.00;;;13.98;85.54
28606;BME280;46498;49.968;7.754;2022-09-13T01:10:46;96712.00;;;14.01;84.83
28606;BME280;46498;49.968;7.754;2022-09-13T01:15:49;96693.00;;;14.08;84.40
28606;BME280;46498;49.968;7.754;2022-09-13T01:31:05;96716.00;;;13.54;88.31
28606;BME280;46498;49.968;7.754;2022-09-13T01:38:03;96725.00;;;13.58;87.17
28606;BME280;46498;49.968;7.754;2022-09-13T01:43:23;96709.00;;;13.44;89.05
28606;BME280;46498;49.968;7.754;2022-09-13T02:01:54;96707.00;;;13.48;88.98
28606;BME280;46498;49.968;7.754;2022-09-13T02:07:06;96704.00;;;13.50;89.20
28606;BME280;46498;49.968;7.754;2022-09-13T02:12:25;96707.00;;;13.67;87.52
28606;BME280;46498;49.968;7.754;2022-09-13T02:17:30;96710.00;;;13.54;88.69
28606;BME280;46498;49.968;7.754;2022-09-13T02:22:38;96722.00;;;13.56;87.34
28606;BME280;46498;49.968;7.754;2022-09-13T02:27:45;96725.00;;;13.72;85.57
28606;BME280;46498;49.968;7.754;2022-09-13T02:33:15;96719.00;;;14.27;82.56
28606;BME280;46498;49.968;7.754;2022-09-13T02:38:33;96713.00;;;14.27;81.46
28606;BME280;46498;49.968;7.754;2022-09-13T02:43:40;96714.00;;;14.27;82.56
28606;BME280;46498;49.968;7.754;2022-09-13T02:48:55;96713.00;;;14.33;82.88
28606;BME280;46498;49.968;7.754;2022-09-13T02:54:48;96714.00;;;14.49;83.09
28606;BME280;46498;49.968;7.754;2022-09-13T02:59:52;96697.00;;;14.55;83.06
28606;BME280;46498;49.968;7.754;2022-09-13T03:04:53;96703.00;;;14.45;83.07
28606;BME280;46498;49.968;7.754;2022-09-13T03:09:57;96697.00;;;14.48;82.92
28606;BME280;46498;49.968;7.754;2022-09-13T03:15:47;96690.00;;;14.51;83.97
28606;BME280;46498;49.968;7.754;2022-09-13T03:21:36;96685.00;;;14.51;85.03
28606;BME280;46498;49.968;7.754;2022-09-13T03:27:00;96683.00;;;14.57;84.38
28606;BME280;46498;49.968;7.754;2022-09-13T03:32:40;96675.00;;;14.62;83.30
28606;BME280;46498;49.968;7.754;2022-09-13T03:38:54;96648.00;;;14.75;81.16
28606;BME280;46498;49.968;7.754;2022-09-13T03:44:02;96638.00;;;14.86;81.10
28606;BME280;46498;49.968;7.754;2022-09-13T03:49:09;96648.00;;;14.77;82.01
28606;BME280;46498;49.968;7.754;2022-09-13T03:54:21;96640.00;;;14.77;81.67
28606;BME280;46498;49.968;7.754;2022-09-13T03:59:22;96640.00;;;14.68;82.48
28606;BME280;46498;49.968;7.754;2022-09-13T04:04:24;96641.00;;;14.68;81.89
28606;BME280;46498;49.968;7.754;2022-09-13T04:09:26;96639.00;;;14.64;82.25
28606;BME280;46498;49.968;7.754;2022-09-13T04:14:27;96640.00;;;14.68;82.86
28606;BME280;46498;49.968;7.754;2022-09-13T04:19:28;96636.00;;;14.71;81.90
28606;BME280;46498;49.968;7.754;2022-09-13T04:24:29;96634.00;;;14.79;81.32
28606;BME280;46498;49.968;7.754;2022-09-13T04:29:30;96639.00;;;14.80;81.22
28606;BME280;46498;49.968;7.754;2022-09-13T04:34:32;96630.00;;;14.86;81.69
28606;BME280;46498;49.968;7.754;2022-09-13T04:39:33;96625.00;;;14.92;81.16
28606;BME280;46498;49.968;7.754;2022-09-13T04:44:33;96619.00;;;15.12;80.94
28606;BME280;46498;49.968;7.754;2022-09-13T04:49:34;96627.00;;;14.99;82.47
28606;BME280;46498;49.968;7.754;2022-09-13T04:54:35;96629.00;;;14.81;83.50
28606;BME280;46498;49.968;7.754;2022-09-13T04:59:37;96652.00;;;14.71;85.02
28606;BME280;46498;49.968;7.754;2022-09-13T05:04:38;96665.00;;;14.57;86.52
28606;BME280;46498;49.968;7.754;2022-09-13T05:09:39;96669.00;;;14.65;86.34
28606;BME280;46498;49.968;7.754;2022-09-13T05:14:40;96676.00;;;14.79;83.99
28606;BME280;46498;49.968;7.754;2022-09-13T05:19:41;96688.00;;;14.85;83.04
28606;BME280;46498;49.968;7.754;2022-09-13T05:24:42;96668.00;;;14.99;82.68
28606;BME280;46498;49.968;7.754;2022-09-13T05:29:42;96671.00;;;15.04;82.28
28606;BME280;46498;49.968;7.754;2022-09-13T05:34:43;96675.00;;;15.00;82.89
28606;BME280;46498;49.968;7.754;2022-09-13T05:39:44;96665.00;;;15.04;83.05
28606;BME280;46498;49.968;7.754;2022-09-13T05:45:10;96673.00;;;15.04;84.17
28606;BME280;46498;49.968;7.754;2022-09-13T05:50:11;96674.00;;;14.92;86.91
28606;BME280;46498;49.968;7.754;2022-09-13T05:55:34;96672.00;;;14.94;91.31
28606;BME280;46498;49.968;7.754;2022-09-13T06:00:35;96679.00;;;14.95;91.92
28606;BME280;46498;49.968;7.754;2022-09-13T06:05:36;96677.00;;;14.78;93.21
28606;BME280;46498;49.968;7.754;2022-09-13T06:10:37;96680.00;;;14.75;93.98
28606;BME280;46498;49.968;7.754;2022-09-13T06:15:37;96688.00;;;14.87;94.00
28606;BME280;46498;49.968;7.754;2022-09-13T06:20:44;96691.00;;;15.05;92.19
28606;BME280;46498;49.968;7.754;2022-09-13T06:25:45;96699.00;;;15.24;88.80
28606;BME280;46498;49.968;7.754;2022-09-13T06:30:46;96697.00;;;15.41;89.93
28606;BME280;46498;49.968;7.754;2022-09-13T06:35:47;96698.00;;;15.52;92.20
28606;BME280;46498;49.968;7.754;2022-09-13T06:40:47;96704.00;;;15.69;91.65
28606;BME280;46498;49.968;7.754;2022-09-13T06:45:48;96701.00;;;15.67;88.88
28606;BME280;46498;49.968;7.754;2022-09-13T06:50:50;96707.00;;;15.69;86.27
28606;BME280;46498;49.968;7.754;2022-09-13T06:56:02;96710.00;;;15.70;89.29
28606;BME280;46498;49.968;7.754;2022-09-13T07:01:12;96706.00;;;15.68;91.93
28606;BME280;46498;49.968;7.754;2022-09-13T07:06:20;96697.00;;;15.85;88.05
28606;BME280;46498;49.968;7.754;2022-09-13T07:11:25;96686.00;;;15.98;90.12
28606;BME280;46498;49.968;7.754;2022-09-13T07:16:29;96674.00;;;15.62;99.99
28606;BME280;46498;49.968;7.754;2022-09-13T07:21:31;96672.00;;;15.37;97.31
28606;BME280;46498;49.968;7.754;2022-09-13T07:26:33;96670.00;;;15.31;96.79
28606;BME280;46498;49.968;7.754;2022-09-13T07:31:39;96679.00;;;15.33;95.62
28606;BME280;46498;49.968;7.754;2022-09-13T07:36:40;96684.00;;;15.31;96.29
28606;BME280;46498;49.968;7.754;2022-09-13T07:41:42;96674.00;;;15.42;98.88
28606;BME280;46498;49.968;7.754;2022-09-13T07:46:43;96681.00;;;15.44;94.43
28606;BME280;46498;49.968;7.754;2022-09-13T07:51:44;96675.00;;;15.62;91.44
28606;BME280;46498;49.968;7.754;2022-09-13T07:56:45;96672.00;;;15.73;89.65
28606;BME280;46498;49.968;7.754;2022-09-13T08:01:50;96669.00;;;15.83;90.49
28606;BME280;46498;49.968;7.754;2022-09-13T08:06:52;96674.00;;;15.84;91.01
28606;BME280;46498;49.968;7.754;2022-09-13T08:11:52;96685.00;;;15.81;94.26
28606;BME280;46498;49.968;7.754;2022-09-13T08:16:54;96689.00;;;15.80;95.24
28606;BME280;46498;49.968;7.754;2022-09-13T08:21:56;96697.00;;;15.71;94.42
28606;BME280;46498;49.968;7.754;2022-09-13T08:26:57;96695.00;;;15.63;91.70
28606;BME280;46498;49.968;7.754;2022-09-13T08:31:58;96708.00;;;15.71;90.00
28606;BME280;46498;49.968;7.754;2022-09-13T08:36:58;96707.00;;;15.84;91.81
28606;BME280;46498;49.968;7.754;2022-09-13T08:42:08;96708.00;;;15.85;90.04
28606;BME280;46498;49.968;7.754;2022-09-13T08:54:00;96711.00;;;16.08;90.47
28606;BME280;46498;49.968;7.754;2022-09-13T08:59:13;96721.00;;;15.97;93.40
28606;BME280;46498;49.968;7.754;2022-09-13T09:05:54;96713.00;;;16.31;92.83
28606;BME280;46498;49.968;7.754;2022-09-13T09:10:58;96695.00;;;17.04;93.41
28606;BME280;46498;49.968;7.754;2022-09-13T09:22:51;96690.00;;;17.31;87.58
28606;BME280;46498;49.968;7.754;2022-09-13T09:27:53;96704.00;;;17.36;90.14
28606;BME280;46498;49.968;7.754;2022-09-13T09:41:29;96711.00;;;16.82;96.57
28606;BME280;46498;49.968;7.754;2022-09-13T09:46:36;96711.00;;;16.84;98.26
28606;BME280;46498;49.968;7.754;2022-09-13T09:51:40;96720.00;;;16.90;98.48
28606;BME280;46498;49.968;7.754;2022-09-13T09:56:51;96720.00;;;16.86;96.88
28606;BME280;46498;49.968;7.754;2022-09-13T10:01:54;96726.00;;;16.86;95.40
28606;BME280;46498;49.968;7.754;2022-09-13T10:07:21;96724.00;;;16.81;91.46
28606;BME280;46498;49.968;7.754;2022-09-13T10:12:28;96713.00;;;16.70;92.46
28606;BME280;46498;49.968;7.754;2022-09-13T10:17:30;96727.00;;;16.76;96.29
28606;BME280;46498;49.968;7.754;2022-09-13T10:22:32;96729.00;;;16.87;97.70
28606;BME280;46498;49.968;7.754;2022-09-13T10:27:40;96722.00;;;17.07;97.09
28606;BME280;46498;49.968;7.754;2022-09-13T10:32:44;96728.00;;;17.20;98.22
28606;BME280;46498;49.968;7.754;2022-09-13T10:37:54;96736.00;;;17.30;98.60
28606;BME280;46498;49.968;7.754;2022-09-13T10:42:57;96718.00;;;17.47;97.50
28606;BME280;46498;49.968;7.754;2022-09-13T10:48:16;96706.00;;;17.55;99.06
28606;BME280;46498;49.968;7.754;2022-09-13T10:53:37;96704.00;;;17.53;100.00
28606;BME280;46498;49.968;7.754;2022-09-13T10:58:38;96720.00;;;17.98;100.00
28606;BME280;46498;49.968;7.754;2022-09-13T11:03:57;96713.00;;;18.01;100.00
28606;BME280;46498;49.968;7.754;2022-09-13T11:09:18;96705.00;;;18.23;97.83
28606;BME280;46498;49.968;7.754;2022-09-13T11:23:19;96674.00;;;18.60;83.59
28606;BME280;46498;49.968;7.754;2022-09-13T11:28:45;96670.00;;;18.61;87.79
28606;BME280;46498;49.968;7.754;2022-09-13T11:49:24;96662.00;;;19.05;93.28
28606;BME280;46498;49.968;7.754;2022-09-13T11:54:49;96670.00;;;18.52;98.16
28606;BME280;46498;49.968;7.754;2022-09-13T11:59:56;96659.00;;;18.61;96.43
28606;BME280;46498;49.968;7.754;2022-09-13T12:05:26;96668.00;;;18.65;93.49
28606;BME280;46498;49.968;7.754;2022-09-13T12:10:42;96669.00;;;18.75;94.86
28606;BME280;46498;49.968;7.754;2022-09-13T12:15:50;96674.00;;;18.80;100.00
28606;BME280;46498;49.968;7.754;2022-09-13T12:20:56;96668.00;;;18.81;100.00
28606;BME280;46498;49.968;7.754;2022-09-13T12:26:13;96669.00;;;19.09;100.00
28606;BME280;46498;49.968;7.754;2022-09-13T12:31:19;96662.00;;;19.37;91.33
28606;BME280;46498;49.968;7.754;2022-09-13T12:38:40;96661.00;;;19.74;88.42
28606;BME280;46498;49.968;7.754;2022-09-13T13:01:14;96641.00;;;19.52;78.80
28606;BME280;46498;49.968;7.754;2022-09-13T13:06:36;96633.00;;;19.48;81.21
28606;BME280;46498;49.968;7.754;2022-09-13T13:11:45;96625.00;;;19.47;82.80
28606;BME280;46498;49.968;7.754;2022-09-13T13:16:47;96613.00;;;19.50;82.45
28606;BME280;46498;49.968;7.754;2022-09-13T13:21:49;96616.00;;;19.53;82.37
28606;BME280;46498;49.968;7.754;2022-09-13T13:26:57;96613.00;;;19.84;81.66
28606;BME280;46498;49.968;7.754;2022-09-13T13:32:10;96617.00;;;20.07;82.35
28606;BME280;46498;49.968;7.754;2022-09-13T13:37:31;96608.00;;;20.15;78.41
28606;BME280;46498;49.968;7.754;2022-09-13T13:42:33;96601.00;;;20.31;78.91
28606;BME280;46498;49.968;7.754;2022-09-13T13:47:52;96599.00;;;20.40;77.29
28606;BME280;46498;49.968;7.754;2022-09-13T13:52:57;96601.00;;;20.30;75.88
28606;BME280;46498;49.968;7.754;2022-09-13T13:58:24;96607.00;;;20.33;76.57
28606;BME280;46498;49.968;7.754;2022-09-13T14:05:06;96598.00;;;20.21;73.46
28606;BME280;46498;49.968;7.754;2022-09-13T14:10:26;96597.00;;;20.24;72.71
28606;BME280;46498;49.968;7.754;2022-09-13T14:15:54;96582.00;;;20.32;70.20
28606;BME280;46498;49.968;7.754;2022-09-13T14:21:22;96578.00;;;20.37;70.53
28606;BME280;46498;49.968;7.754;2022-09-13T14:26:23;96570.00;;;20.47;71.26
28606;BME280;46498;49.968;7.754;2022-09-13T14:31:24;96573.00;;;20.44;70.28
28606;BME280;46498;49.968;7.754;2022-09-13T14:36:26;96566.00;;;20.40;71.13
28606;BME280;46498;49.968;7.754;2022-09-13T14:41:36;96559.00;;;20.43;71.18
28606;BME280;46498;49.968;7.754;2022-09-13T14:46:39;96562.00;;;20.32;71.14
28606;BME280;46498;49.968;7.754;2022-09-13T14:51:54;96558.00;;;20.31;71.37
28606;BME280;46498;49.968;7.754;2022-09-13T14:57:00;96550.00;;;20.31;72.78
28606;BME280;46498;49.968;7.754;2022-09-13T15:02:14;96553.00;;;20.30;73.53
28606;BME280;46498;49.968;7.754;2022-09-13T15:07:22;96541.00;;;20.27;73.09
28606;BME280;46498;49.968;7.754;2022-09-13T15:12:27;96537.00;;;20.28;73.98
28606;BME280;46498;49.968;7.754;2022-09-13T15:17:28;96528.00;;;20.30;74.63
28606;BME280;46498;49.968;7.754;2022-09-13T15:22:30;96519.00;;;20.31;75.33
28606;BME280;46498;49.968;7.754;2022-09-13T15:27:43;96515.00;;;20.29;76.18
28606;BME280;46498;49.968;7.754;2022-09-13T15:32:45;96515.00;;;20.25;76.20
28606;BME280;46498;49.968;7.754;2022-09-13T15:37:57;96520.00;;;20.27;75.62
28606;BME280;46498;49.968;7.754;2022-09-13T15:42:58;96517.00;;;20.23;75.18
28606;BME280;46498;49.968;7.754;2022-09-13T15:48:00;96526.00;;;20.14;83.50
28606;BME280;46498;49.968;7.754;2022-09-13T15:53:01;96518.00;;;20.05;86.23
28606;BME280;46498;49.968;7.754;2022-09-13T15:58:05;96513.00;;;19.97;85.80
28606;BME280;46498;49.968;7.754;2022-09-13T16:03:07;96523.00;;;19.89;85.45
28606;BME280;46498;49.968;7.754;2022-09-13T16:08:10;96522.00;;;19.87;87.86
28606;BME280;46498;49.968;7.754;2022-09-13T16:13:11;96513.00;;;19.82;89.88
28606;BME280;46498;49.968;7.754;2022-09-13T16:18:14;96512.00;;;19.73;90.96
28606;BME280;46498;49.968;7.754;2022-09-13T16:23:16;96514.00;;;19.59;91.72
28606;BME280;46498;49.968;7.754;2022-09-13T16:28:17;96507.00;;;19.57;92.23
28606;BME280;46498;49.968;7.754;2022-09-13T16:33:21;96508.00;;;19.50;93.08
28606;BME280;46498;49.968;7.754;2022-09-13T16:38:22;96519.00;;;19.41;90.59
28606;BME280;46498;49.968;7.754;2022-09-13T16:43:23;96516.00;;;19.46;89.11
28606;BME280;46498;49.968;7.754;2022-09-13T16:48:24;96524.00;;;19.49;94.30
28606;BME280;46498;49.968;7.754;2022-09-13T16:53:25;96512.00;;;19.40;95.71
28606;BME280;46498;49.968;7.754;2022-09-13T16:58:26;96515.00;;;19.35;96.01
28606;BME280;46498;49.968;7.754;2022-09-13T17:03:26;96515.00;;;19.33;95.24
28606;BME280;46498;49.968;7.754;2022-09-13T17:08:28;96517.00;;;19.26;94.88
28606;BME280;46498;49.968;7.754;2022-09-13T17:13:29;96516.00;;;19.15;94.87
28606;BME280;46498;49.968;7.754;2022-09-13T17:18:30;96506.00;;;19.07;94.97
28606;BME280;46498;49.968;7.754;2022-09-13T17:23:31;96521.00;;;18.99;94.89
28606;BME280;46498;49.968;7.754;2022-09-13T17:28:32;96509.00;;;18.88;93.25
28606;BME280;46498;49.968;7.754;2022-09-13T17:33:34;96509.00;;;18.95;90.81
28606;BME280;46498;49.968;7.754;2022-09-13T17:38:36;96508.00;;;18.76;90.71
28606;BME280;46498;49.968;7.754;2022-09-13T17:43:38;96504.00;;;18.62;90.12
28606;BME280;46498;49.968;7.754;2022-09-13T17:48:40;96489.00;;;18.60;89.94
28606;BME280;46498;49.968;7.754;2022-09-13T17:53:44;96493.00;;;18.48;90.17
28606;BME280;46498;49.968;7.754;2022-09-13T17:58:46;96497.00;;;18.35;91.42
28606;BME280;46498;49.968;7.754;2022-09-13T18:03:47;96491.00;;;18.22;89.66
28606;BME280;46498;49.968;7.754;2022-09-13T18:08:52;96489.00;;;18.12;87.36
28606;BME280;46498;49.968;7.754;2022-09-13T18:13:52;96486.00;;;18.66;81.99
28606;BME280;46498;49.968;7.754;2022-09-13T18:18:54;96484.00;;;18.89;85.15
28606;BME280;46498;49.968;7.754;2022-09-13T18:23:57;96484.00;;;19.02;86.68
28606;BME280;46498;49.968;7.754;2022-09-13T18:29:01;96499.00;;;19.05;86.86
28606;BME280;46498;49.968;7.754;2022-09-13T18:34:06;96497.00;;;18.78;88.66
28606;BME280;46498;49.968;7.754;2022-09-13T18:39:13;96502.00;;;18.81;88.83
28606;BME280;46498;49.968;7.754;2022-09-13T18:44:16;96508.00;;;18.73;89.88
28606;BME280;46498;49.968;7.754;2022-09-13T18:49:17;96515.00;;;18.59;90.96
28606;BME280;46498;49.968;7.754;2022-09-13T18:54:19;96509.00;;;18.45;92.47
28606;BME280;46498;49.968;7.754;2022-09-13T18:59:20;96505.00;;;18.38;93.73
28606;BME280;46498;49.968;7.754;2022-09-13T19:04:21;96494.00;;;18.37;94.61
28606;BME280;46498;49.968;7.754;2022-09-13T19:09:22;96500.00;;;18.22;95.44
28606;BME280;46498;49.968;7.754;2022-09-13T19:14:25;96513.00;;;18.16;96.66
28606;BME280;46498;49.968;7.754;2022-09-13T19:19:27;96510.00;;;18.15;96.47
28606;BME280;46498;49.968;7.754;2022-09-13T19:24:30;96509.00;;;18.10;96.18
28606;BME280;46498;49.968;7.754;2022-09-13T19:29:31;96516.00;;;17.98;97.20
28606;BME280;46498;49.968;7.754;2022-09-13T19:34:32;96523.00;;;17.84;98.32
28606;BME280;46498;49.968;7.754;2022-09-13T19:39:33;96521.00;;;17.84;98.73
28606;BME280;46498;49.968;7.754;2022-09-13T19:44:34;96518.00;;;17.78;99.23
28606;BME280;46498;49.968;7.754;2022-09-13T19:49:34;96525.00;;;17.80;99.18
28606;BME280;46498;49.968;7.754;2022-09-13T19:54:35;96526.00;;;17.87;99.03
28606;BME280;46498;49.968;7.754;2022-09-13T19:59:36;96516.00;;;17.86;99.02
28606;BME280;46498;49.968;7.754;2022-09-13T20:04:37;96511.00;;;17.83;99.99
28606;BME280;46498;49.968;7.754;2022-09-13T20:09:38;96512.00;;;17.71;100.00
28606;BME280;46498;49.968;7.754;2022-09-13T20:14:41;96507.00;;;17.57;100.00
28606;BME280;46498;49.968;7.754;2022-09-13T20:19:41;96500.00;;;17.44;100.00
28606;BME280;46498;49.968;7.754;2022-09-13T20:24:50;96500.00;;;17.45;100.00
28606;BME280;46498;49.968;7.754;2022-09-13T20:29:51;96479.00;;;17.38;100.00
28606;BME280;46498;49.968;7.754;2022-09-13T20:34:51;96462.00;;;17.33;100.00
28606;BME280;46498;49.968;7.754;2022-09-13T20:39:52;96463.00;;;16.91;100.00
28606;BME280;46498;49.968;7.754;2022-09-13T20:44:53;96449.00;;;16.60;100.00
28606;BME280;46498;49.968;7.754;2022-09-13T20:49:54;96457.00;;;16.45;100.00
28606;BME280;46498;49.968;7.754;2022-09-13T20:54:55;96478.00;;;16.34;100.00
28606;BME280;46498;49.968;7.754;2022-09-13T20:59:56;96471.00;;;16.51;100.00
28606;BME280;46498;49.968;7.754;2022-09-13T21:04:57;96465.00;;;16.47;100.00
28606;BME280;46498;49.968;7.754;2022-09-13T21:09:59;96464.00;;;16.50;100.00
28606;BME280;46498;49.968;7.754;2022-09-13T21:15:00;96457.00;;;16.55;100.00
28606;BME280;46498;49.968;7.754;2022-09-13T21:20:01;96446.00;;;16.67;100.00
28606;BME280;46498;49.968;7.754;2022-09-13T21:25:03;96439.00;;;16.64;100.00
28606;BME280;46498;49.968;7.754;2022-09-13T21:30:05;96415.00;;;16.79;100.00
28606;BME280;46498;49.968;7.754;2022-09-13T21:35:08;96421.00;;;16.60;100.00
28606;BME280;46498;49.968;7.754;2022-09-13T21:40:09;96416.00;;;16.53;100.00
28606;BME280;46498;49.968;7.754;2022-09-13T21:45:10;96403.00;;;16.39;100.00
28606;BME280;46498;49.968;7.754;2022-09-13T21:50:11;96398.00;;;16.34;100.00
28606;BME280;46498;49.968;7.754;2022-09-13T21:55:12;96382.00;;;16.45;100.00
28606;BME280;46498;49.968;7.754;2022-09-13T22:00:13;96367.00;;;16.41;100.00
28606;BME280;46498;49.968;7.754;2022-09-13T22:05:14;96375.00;;;16.28;100.00
28606;BME280;46498;49.968;7.754;2022-09-13T22:10:15;96380.00;;;16.26;100.00
28606;BME280;46498;49.968;7.754;2022-09-13T22:15:16;96375.00;;;16.39;100.00
28606;BME280;46498;49.968;7.754;2022-09-13T22:20:17;96378.00;;;16.37;100.00
28606;BME280;46498;49.968;7.754;2022-09-13T22:25:19;96370.00;;;16.42;100.00
28606;BME280;46498;49.968;7.754;2022-09-13T22:30:20;96380.00;;;16.30;100.00
28606;BME280;46498;49.968;7.754;2022-09-13T22:35:20;96382.00;;;16.24;100.00
28606;BME280;46498;49.968;7.754;2022-09-13T22:40:21;96376.00;;;16.27;100.00
28606;BME280;46498;49.968;7.754;2022-09-13T22:45:22;96361.00;;;16.19;100.00
28606;BME280;46498;49.968;7.754;2022-09-13T22:50:23;96359.00;;;16.25;100.00
28606;BME280;46498;49.968;7.754;2022-09-13T22:55:24;96352.00;;;16.45;100.00
28606;BME280;46498;49.968;7.754;2022-09-13T23:00:25;96358.00;;;16.31;100.00
28606;BME280;46498;49.968;7.754;2022-09-13T23:05:26;96334.00;;;16.69;100.00
28606;BME280;46498;49.968;7.754;2022-09-13T23:10:27;96351.00;;;16.62;100.00
28606;BME280;46498;49.968;7.754;2022-09-13T23:15:27;96335.00;;;16.43;100.00
28606;BME280;46498;49.968;7.754;2022-09-13T23:20:28;96334.00;;;16.30;100.00
28606;BME280;46498;49.968;7.754;2022-09-13T23:25:31;96337.00;;;16.16;100.00
28606;BME280;46498;49.968;7.754;2022-09-13T23:30:32;96341.00;;;16.06;100.00
28606;BME280;46498;49.968;7.754;2022-09-13T23:35:33;96346.00;;;15.95;100.00
28606;BME280;46498;49.968;7.754;2022-09-13T23:40:36;96356.00;;;15.96;100.00
28606;BME280;46498;49.968;7.754;2022-09-13T23:45:37;96358.00;;;15.92;100.00
28606;BME280;46498;49.968;7.754;2022-09-13T23:50:38;96352.00;;;16.04;100.00
28606;BME280;46498;49.968;7.754;2022-09-13T23:55:39;96346.00;;;16.02;100.00
